createdAt,value
2022-09-24T00:00:14.869Z,42.17
2022-09-24T00:02:42.711Z,42.13
2022-09-24T00:05:10.420Z,42.07
2022-09-24T00:07:38.134Z,42.15
2022-09-24T00:10:05.820Z,41.89
2022-09-24T00:12:33.575Z,42.06
2022-09-24T00:15:01.377Z,42.07
2022-09-24T00:17:29.204Z,41.97
2022-09-24T00:19:56.889Z,42.24
2022-09-24T00:22:24.693Z,41.89
2022-09-24T00:25:10.102Z,42.03
2022-09-24T00:27:37.804Z,42.31
2022-09-24T00:30:05.561Z,42.00
2022-09-24T00:32:33.243Z,41.90
2022-09-24T00:35:01.068Z,41.93
2022-09-24T00:37:29.165Z,42.31
2022-09-24T00:39:56.939Z,42.01
2022-09-24T00:42:24.934Z,42.02
2022-09-24T00:44:54.488Z,42.06
2022-09-24T00:47:23.295Z,42.29
2022-09-24T00:49:51.079Z,42.03
2022-09-24T00:52:19.054Z,42.21
2022-09-24T00:54:46.969Z,41.90
2022-09-24T00:57:14.609Z,42.27
2022-09-24T00:59:42.609Z,42.22
2022-09-24T01:02:10.377Z,42.11
2022-09-24T01:04:38.123Z,41.94
2022-09-24T01:07:05.963Z,42.44
2022-09-24T01:09:33.663Z,42.44
2022-09-24T01:12:01.571Z,42.38
2022-09-24T01:14:32.645Z,42.14
2022-09-24T01:17:00.374Z,42.20
2022-09-24T01:19:28.089Z,42.46
2022-09-24T01:21:56.432Z,41.86
2022-09-24T01:24:25.167Z,42.56
2022-09-24T01:26:52.979Z,42.42
2022-09-24T01:29:21.690Z,42.37
2022-09-24T01:31:49.667Z,42.37
2022-09-24T01:34:17.438Z,42.26
2022-09-24T01:36:45.163Z,42.28
2022-09-24T01:39:14.679Z,42.43
2022-09-24T01:41:43.128Z,42.48
2022-09-24T01:44:11.712Z,42.27
2022-09-24T01:46:39.588Z,42.29
2022-09-24T01:49:07.392Z,42.42
2022-09-24T01:51:35.135Z,42.53
2022-09-24T01:54:03.836Z,42.49
2022-09-24T01:56:31.676Z,42.25
2022-09-24T01:58:59.432Z,42.54
2022-09-24T02:01:27.230Z,42.26
2022-09-24T02:03:55.075Z,42.57
2022-09-24T02:06:22.858Z,42.27
2022-09-24T02:08:50.528Z,42.21
2022-09-24T02:11:18.226Z,42.44
2022-09-24T02:13:46.773Z,42.34
2022-09-24T02:16:16.328Z,42.46
2022-09-24T02:18:44.346Z,42.32
2022-09-24T02:21:12.041Z,42.46
2022-09-24T02:23:39.901Z,42.50
2022-09-24T02:26:07.601Z,42.35
2022-09-24T02:28:35.325Z,42.28
2022-09-24T02:31:03.020Z,42.30
2022-09-24T02:33:48.449Z,42.30
2022-09-24T02:36:16.237Z,42.43
2022-09-24T02:38:44.176Z,42.31
2022-09-24T02:41:11.953Z,42.59
2022-09-24T02:43:41.149Z,42.54
2022-09-24T02:46:10.286Z,42.47
2022-09-24T02:48:38.283Z,42.38
2022-09-24T02:51:05.998Z,42.26
2022-09-24T02:53:33.710Z,42.62
2022-09-24T02:56:01.504Z,42.58
2022-09-24T02:58:29.238Z,42.51
2022-09-24T03:00:57.287Z,42.63
2022-09-24T03:03:25.111Z,42.27
2022-09-24T03:05:54.691Z,42.52
2022-09-24T03:08:22.377Z,42.56
2022-09-24T03:10:51.255Z,42.40
2022-09-24T03:13:19.132Z,42.63
2022-09-24T03:15:46.966Z,42.57
2022-09-24T03:18:14.870Z,42.62
2022-09-24T03:20:42.615Z,42.44
2022-09-24T03:23:10.346Z,42.19
2022-09-24T03:25:38.192Z,42.68
2022-09-24T03:28:05.893Z,42.47
2022-09-24T03:30:51.085Z,42.65
2022-09-24T03:33:18.768Z,42.78
2022-09-24T03:35:46.710Z,42.76
2022-09-24T03:38:14.409Z,42.75
2022-09-24T03:40:42.288Z,43.00
2022-09-24T03:43:10.028Z,42.85
2022-09-24T03:45:38.854Z,42.75
2022-09-24T03:48:06.982Z,42.70
2022-09-24T03:50:34.841Z,42.89
2022-09-24T03:53:02.672Z,42.91
2022-09-24T03:55:30.573Z,42.94
2022-09-24T03:57:58.571Z,43.00
2022-09-24T04:00:27.267Z,42.95
2022-09-24T04:02:55.055Z,42.80
2022-09-24T04:05:22.825Z,42.86
2022-09-24T04:07:50.536Z,42.72
2022-09-24T04:10:18.235Z,42.90
2022-09-24T04:12:46.288Z,42.58
2022-09-24T04:15:15.842Z,42.81
2022-09-24T04:17:43.946Z,42.67
2022-09-24T04:20:13.293Z,42.92
2022-09-24T04:22:41.076Z,42.70
2022-09-24T04:25:14.030Z,42.99
2022-09-24T04:27:42.665Z,42.87
2022-09-24T04:30:10.349Z,42.74
2022-09-24T04:32:38.041Z,42.91
2022-09-24T04:35:07.687Z,42.61
2022-09-24T04:37:35.613Z,42.92
2022-09-24T04:40:03.334Z,42.84
2022-09-24T04:42:31.109Z,43.07
2022-09-24T04:44:59.415Z,42.78
2022-09-24T04:47:27.109Z,41.44
2022-09-24T04:49:54.809Z,32.33
2022-09-24T04:52:26.842Z,25.38
2022-09-24T04:54:54.636Z,21.10
2022-09-24T04:57:23.079Z,18.26
2022-09-24T04:59:50.884Z,17.27
2022-09-24T05:02:19.120Z,16.25
2022-09-24T05:04:47.124Z,15.70
2022-09-24T05:07:14.816Z,15.43
2022-09-24T05:09:42.469Z,14.89
2022-09-24T05:12:10.210Z,14.71
2022-09-24T05:14:37.917Z,14.60
2022-09-24T05:17:05.656Z,14.82
2022-09-24T05:19:33.332Z,15.32
2022-09-24T05:22:01.045Z,16.28
2022-09-24T05:24:28.761Z,16.77
2022-09-24T05:27:11.870Z,18.15
2022-09-24T05:29:39.577Z,19.36
2022-09-24T05:32:07.451Z,20.26
2022-09-24T05:34:35.140Z,21.12
2022-09-24T05:37:02.854Z,21.80
2022-09-24T05:39:33.867Z,22.64
2022-09-24T05:42:04.443Z,23.31
2022-09-24T05:44:32.379Z,24.26
2022-09-24T05:47:00.189Z,25.16
2022-09-24T05:49:28.057Z,26.53
2022-09-24T05:51:55.788Z,26.67
2022-09-24T05:54:23.597Z,27.76
2022-09-24T05:56:51.311Z,28.16
2022-09-24T05:59:19.030Z,28.79
2022-09-24T06:01:46.781Z,29.59
2022-09-24T06:04:14.768Z,29.92
2022-09-24T06:06:43.692Z,30.69
2022-09-24T06:09:11.420Z,30.93
2022-09-24T06:11:40.775Z,31.35
2022-09-24T06:14:09.101Z,31.86
2022-09-24T06:16:37.111Z,32.24
2022-09-24T06:19:04.875Z,32.73
2022-09-24T06:21:32.636Z,33.02
2022-09-24T06:24:00.367Z,33.32
2022-09-24T06:26:29.135Z,33.80
2022-09-24T06:29:00.780Z,33.97
2022-09-24T06:31:31.630Z,34.27
2022-09-24T06:34:00.435Z,34.57
2022-09-24T06:36:28.179Z,35.45
2022-09-24T06:38:55.958Z,34.96
2022-09-24T06:41:23.840Z,35.66
2022-09-24T06:43:51.602Z,35.79
2022-09-24T06:46:19.434Z,35.41
2022-09-24T06:48:47.191Z,35.79
2022-09-24T06:51:15.103Z,35.22
2022-09-24T06:53:42.804Z,35.58
2022-09-24T06:56:10.530Z,35.17
2022-09-24T06:58:38.257Z,35.33
2022-09-24T07:01:06.640Z,35.14
2022-09-24T07:03:34.411Z,35.00
2022-09-24T07:06:02.114Z,34.67
2022-09-24T07:08:29.800Z,34.45
2022-09-24T07:10:57.570Z,34.68
2022-09-24T07:13:25.670Z,34.32
2022-09-24T07:15:53.676Z,34.47
2022-09-24T07:18:21.426Z,34.46
2022-09-24T07:20:49.177Z,34.12
2022-09-24T07:23:18.375Z,34.44
2022-09-24T07:25:46.129Z,34.96
2022-09-24T07:28:13.991Z,34.71
2022-09-24T07:30:41.778Z,35.31
2022-09-24T07:33:09.444Z,35.46
2022-09-24T07:35:37.226Z,35.48
2022-09-24T07:38:04.916Z,36.18
2022-09-24T07:40:32.787Z,36.15
2022-09-24T07:43:00.794Z,36.70
2022-09-24T07:45:29.764Z,36.40
2022-09-24T07:47:57.789Z,37.15
2022-09-24T07:50:25.599Z,37.06
2022-09-24T07:52:53.252Z,37.45
2022-09-24T07:55:21.456Z,37.53
2022-09-24T07:57:49.197Z,37.37
2022-09-24T08:00:17.387Z,38.02
2022-09-24T08:02:45.356Z,38.09
2022-09-24T08:05:13.276Z,38.14
2022-09-24T08:07:40.999Z,37.94
2022-09-24T08:10:08.758Z,38.46
2022-09-24T08:12:36.555Z,38.79
2022-09-24T08:15:04.293Z,38.73
2022-09-24T08:17:32.168Z,38.58
2022-09-24T08:19:59.896Z,38.85
2022-09-24T08:22:27.591Z,39.19
2022-09-24T08:24:57.514Z,39.02
2022-09-24T08:27:25.418Z,39.25
2022-09-24T08:29:53.193Z,39.44
2022-09-24T08:32:20.945Z,39.31
2022-09-24T08:34:48.618Z,39.28
2022-09-24T08:37:16.475Z,39.63
2022-09-24T08:39:44.193Z,39.94
2022-09-24T08:42:11.893Z,39.97
2022-09-24T08:44:56.578Z,40.20
2022-09-24T08:47:24.283Z,40.23
2022-09-24T08:49:52.067Z,40.11
2022-09-24T08:52:19.832Z,40.20
2022-09-24T08:54:47.710Z,40.32
2022-09-24T08:57:15.418Z,40.55
2022-09-24T08:59:43.489Z,40.39
2022-09-24T09:02:11.370Z,40.77
2022-09-24T09:04:39.239Z,40.89
2022-09-24T09:07:07.005Z,41.17
2022-09-24T09:09:34.795Z,41.04
2022-09-24T09:12:02.558Z,41.31
2022-09-24T09:14:31.628Z,41.37
2022-09-24T09:17:02.400Z,41.60
2022-09-24T09:19:30.083Z,41.40
2022-09-24T09:21:57.799Z,41.61
2022-09-24T09:24:25.507Z,41.54
2022-09-24T09:26:54.737Z,41.37
2022-09-24T09:29:22.490Z,41.50
2022-09-24T09:31:53.908Z,41.46
2022-09-24T09:34:24.229Z,41.66
2022-09-24T09:36:53.410Z,41.64
2022-09-24T09:39:21.099Z,41.44
2022-09-24T09:41:48.801Z,41.48
2022-09-24T09:44:16.515Z,41.37
2022-09-24T09:46:44.257Z,41.75
2022-09-24T09:49:12.217Z,41.56
2022-09-24T09:51:39.945Z,41.62
2022-09-24T09:54:07.718Z,41.96
2022-09-24T09:56:35.448Z,41.91
2022-09-24T09:59:03.305Z,42.07
2022-09-24T10:01:31.761Z,42.18
2022-09-24T10:04:03.153Z,42.09
2022-09-24T10:06:31.351Z,42.28
2022-09-24T10:08:59.079Z,42.38
2022-09-24T10:11:27.243Z,42.29
2022-09-24T10:13:54.974Z,42.21
2022-09-24T10:16:22.822Z,42.13
2022-09-24T10:18:50.669Z,42.47
2022-09-24T10:21:18.701Z,42.61
2022-09-24T10:23:47.352Z,42.73
2022-09-24T10:26:15.026Z,42.47
2022-09-24T10:29:00.438Z,42.25
2022-09-24T10:31:28.210Z,42.76
2022-09-24T10:33:55.982Z,42.39
2022-09-24T10:36:23.668Z,42.72
2022-09-24T10:38:51.385Z,42.53
2022-09-24T10:41:19.104Z,42.80
2022-09-24T10:43:47.664Z,42.75
2022-09-24T10:46:15.421Z,42.64
2022-09-24T10:48:43.150Z,42.50
2022-09-24T10:51:11.798Z,42.59
2022-09-24T10:53:40.129Z,42.60
2022-09-24T10:56:07.853Z,42.69
2022-09-24T10:58:35.743Z,42.43
2022-09-24T11:01:03.869Z,42.15
2022-09-24T11:03:31.643Z,42.59
2022-09-24T11:05:59.382Z,42.36
2022-09-24T11:08:28.837Z,42.36
2022-09-24T11:10:56.866Z,42.35
2022-09-24T11:13:24.556Z,42.34
2022-09-24T11:15:53.578Z,42.39
2022-09-24T11:18:21.306Z,42.73
2022-09-24T11:20:49.466Z,42.41
2022-09-24T11:23:17.206Z,42.69
2022-09-24T11:25:44.935Z,42.42
2022-09-24T11:28:12.894Z,42.44
2022-09-24T11:30:40.761Z,42.55
2022-09-24T11:33:08.533Z,42.51
2022-09-24T11:35:36.301Z,42.71
2022-09-24T11:38:04.077Z,42.43
2022-09-24T11:40:31.947Z,42.62
2022-09-24T11:42:59.654Z,42.44
2022-09-24T11:45:27.339Z,42.20
2022-09-24T11:47:55.291Z,42.17
2022-09-24T11:50:22.999Z,39.03
2022-09-24T11:52:50.668Z,33.25
2022-09-24T11:55:18.326Z,28.47
2022-09-24T11:57:46.027Z,26.66
2022-09-24T12:00:13.903Z,25.59
2022-09-24T12:02:41.711Z,24.63
2022-09-24T12:05:09.506Z,23.41
2022-09-24T12:07:37.179Z,22.81
2022-09-24T12:10:04.921Z,22.62
2022-09-24T12:12:32.711Z,22.49
2022-09-24T12:15:01.679Z,22.67
2022-09-24T12:17:29.389Z,23.31
2022-09-24T12:19:57.101Z,22.89
2022-09-24T12:22:24.799Z,22.82
2022-09-24T12:24:52.512Z,22.95
2022-09-24T12:27:20.296Z,23.12
2022-09-24T12:30:05.395Z,24.15
2022-09-24T12:32:50.621Z,24.67
2022-09-24T12:35:18.906Z,25.54
2022-09-24T12:37:46.603Z,26.26
2022-09-24T12:40:14.342Z,27.09
2022-09-24T12:42:42.070Z,27.65
2022-09-24T12:45:09.791Z,28.28
2022-09-24T12:47:37.490Z,28.91
2022-09-24T12:50:05.364Z,29.10
2022-09-24T12:52:33.124Z,29.78
2022-09-24T12:55:01.032Z,30.46
2022-09-24T12:57:28.810Z,31.03
2022-09-24T12:59:56.577Z,31.61
2022-09-24T13:02:24.686Z,32.31
2022-09-24T13:04:52.540Z,32.77
2022-09-24T13:07:20.242Z,33.13
2022-09-24T13:09:48.246Z,33.37
2022-09-24T13:12:16.027Z,33.99
2022-09-24T13:14:44.307Z,34.49
2022-09-24T13:17:12.815Z,34.33
2022-09-24T13:19:41.124Z,35.18
2022-09-24T13:22:08.855Z,34.97
2022-09-24T13:24:37.553Z,35.35
2022-09-24T13:27:05.321Z,35.61
2022-09-24T13:29:33.000Z,35.52
2022-09-24T13:32:00.684Z,36.34
2022-09-24T13:34:28.429Z,36.25
2022-09-24T13:36:57.566Z,35.87
2022-09-24T13:39:25.296Z,36.61
2022-09-24T13:41:53.037Z,36.40
2022-09-24T13:44:20.755Z,36.38
2022-09-24T13:46:48.790Z,35.76
2022-09-24T13:49:17.771Z,35.13
2022-09-24T13:51:45.450Z,34.72
2022-09-24T13:54:13.175Z,33.41
2022-09-24T13:56:40.904Z,31.25
2022-09-24T13:59:08.690Z,29.07
2022-09-24T14:01:36.430Z,27.53
2022-09-24T14:04:04.160Z,26.67
2022-09-24T14:06:31.835Z,25.98
2022-09-24T14:09:01.077Z,25.28
2022-09-24T14:11:28.810Z,25.01
2022-09-24T14:13:57.458Z,25.36
2022-09-24T14:16:25.268Z,26.08
2022-09-24T14:18:53.059Z,26.61
2022-09-24T14:21:20.798Z,26.83
2022-09-24T14:23:48.487Z,27.41
2022-09-24T14:26:16.188Z,27.96
2022-09-24T14:28:43.874Z,29.25
2022-09-24T14:31:11.672Z,29.46
2022-09-24T14:33:39.365Z,29.98
2022-09-24T14:36:07.048Z,30.77
2022-09-24T14:38:35.769Z,31.11
2022-09-24T14:41:03.466Z,31.90
2022-09-24T14:43:31.660Z,32.46
2022-09-24T14:45:59.388Z,32.75
2022-09-24T14:48:27.575Z,33.15
2022-09-24T14:50:55.551Z,33.68
2022-09-24T14:53:23.751Z,33.97
2022-09-24T14:55:51.469Z,34.49
2022-09-24T14:58:19.227Z,34.92
2022-09-24T15:00:46.910Z,34.80
2022-09-24T15:03:14.965Z,35.36
2022-09-24T15:05:43.046Z,35.32
2022-09-24T15:08:11.155Z,35.97
2022-09-24T15:10:40.007Z,36.03
2022-09-24T15:13:07.949Z,36.55
2022-09-24T15:15:36.232Z,36.14
2022-09-24T15:18:05.664Z,36.65
2022-09-24T15:20:33.385Z,36.52
2022-09-24T15:23:01.943Z,36.51
2022-09-24T15:25:29.637Z,36.68
2022-09-24T15:27:57.698Z,37.41
2022-09-24T15:30:25.464Z,37.12
2022-09-24T15:32:53.181Z,37.53
2022-09-24T15:35:20.946Z,37.18
2022-09-24T15:37:49.485Z,37.07
2022-09-24T15:40:17.309Z,36.68
2022-09-24T15:42:45.047Z,35.71
2022-09-24T15:45:12.725Z,34.60
2022-09-24T15:47:40.410Z,33.30
2022-09-24T15:50:08.108Z,32.41
2022-09-24T15:52:35.851Z,32.26
2022-09-24T15:55:03.727Z,32.64
2022-09-24T15:57:31.394Z,32.53
2022-09-24T15:59:59.131Z,31.98
2022-09-24T16:02:27.172Z,31.24
2022-09-24T16:04:54.945Z,30.87
2022-09-24T16:07:22.689Z,30.13
2022-09-24T16:09:50.375Z,29.13
2022-09-24T16:12:18.065Z,27.81
2022-09-24T16:14:45.756Z,27.56
2022-09-24T16:17:13.497Z,27.25
2022-09-24T16:19:41.169Z,27.61
2022-09-24T16:22:08.905Z,27.89
2022-09-24T16:24:36.581Z,27.91
2022-09-24T16:27:04.306Z,28.77
2022-09-24T16:29:31.966Z,28.95
2022-09-24T16:31:59.649Z,29.57
2022-09-24T16:34:27.405Z,30.19
2022-09-24T16:36:55.124Z,30.58
2022-09-24T16:39:22.884Z,31.10
2022-09-24T16:41:51.026Z,31.80
2022-09-24T16:44:18.794Z,32.35
2022-09-24T16:46:46.614Z,32.76
2022-09-24T16:49:14.348Z,32.94
2022-09-24T16:51:42.047Z,33.74
2022-09-24T16:54:09.713Z,34.15
2022-09-24T16:56:37.643Z,34.47
2022-09-24T16:59:05.454Z,34.52
2022-09-24T17:01:33.316Z,34.92
2022-09-24T17:04:01.062Z,35.51
2022-09-24T17:06:28.780Z,35.95
2022-09-24T17:09:14.278Z,35.74
2022-09-24T17:11:42.064Z,35.77
2022-09-24T17:14:10.511Z,36.51
2022-09-24T17:16:38.272Z,36.31
2022-09-24T17:19:08.148Z,36.23
2022-09-24T17:21:35.953Z,36.04
2022-09-24T17:24:03.693Z,34.93
2022-09-24T17:26:31.411Z,34.76
2022-09-24T17:28:59.244Z,34.42
2022-09-24T17:31:26.997Z,34.03
2022-09-24T17:33:55.790Z,33.02
2022-09-24T17:36:23.539Z,31.81
2022-09-24T17:38:51.915Z,30.79
2022-09-24T17:41:19.653Z,29.92
2022-09-24T17:43:48.130Z,29.14
2022-09-24T17:46:15.841Z,29.41
2022-09-24T17:48:44.578Z,28.58
2022-09-24T17:51:12.368Z,27.91
2022-09-24T17:53:40.171Z,28.38
2022-09-24T17:56:07.870Z,28.66
2022-09-24T17:58:35.565Z,28.66
2022-09-24T18:01:03.292Z,29.30
2022-09-24T18:03:30.968Z,29.92
2022-09-24T18:05:58.621Z,30.44
2022-09-24T18:11:18.378Z,31.48
2022-09-24T18:13:46.079Z,31.85
2022-09-24T18:16:13.896Z,32.26
2022-09-24T18:18:41.644Z,32.89
2022-09-24T18:21:09.343Z,33.07
2022-09-24T18:23:37.025Z,33.74
2022-09-24T18:26:04.850Z,34.02
2022-09-24T18:28:34.060Z,34.48
2022-09-24T18:31:02.970Z,34.86
2022-09-24T18:33:30.675Z,34.73
2022-09-24T18:35:58.404Z,35.52
2022-09-24T18:38:26.094Z,35.34
2022-09-24T18:40:53.841Z,35.54
2022-09-24T18:43:21.577Z,35.66
2022-09-24T18:45:49.265Z,36.31
2022-09-24T18:48:16.961Z,36.18
2022-09-24T18:50:44.621Z,36.24
2022-09-24T18:53:12.318Z,37.16
2022-09-24T18:55:40.677Z,36.86
2022-09-24T18:58:08.389Z,37.49
2022-09-24T19:00:51.380Z,36.97
2022-09-24T19:03:19.161Z,37.33
2022-09-24T19:05:47.532Z,37.61
2022-09-24T19:08:15.288Z,37.80
2022-09-24T19:10:42.948Z,37.60
2022-09-24T19:13:10.649Z,38.42
2022-09-24T19:15:38.798Z,38.18
2022-09-24T19:18:07.275Z,38.35
2022-09-24T19:20:34.961Z,38.62
2022-09-24T19:23:02.810Z,38.32
2022-09-24T19:25:30.481Z,38.78
2022-09-24T19:27:58.976Z,38.45
2022-09-24T19:30:27.593Z,38.78
2022-09-24T19:32:55.278Z,38.72
2022-09-24T19:35:22.959Z,38.90
2022-09-24T19:37:50.734Z,39.07
2022-09-24T19:40:19.733Z,39.23
2022-09-24T19:42:48.153Z,39.40
2022-09-24T19:45:15.890Z,38.95
2022-09-24T19:47:43.583Z,39.09
2022-09-24T19:50:16.512Z,39.19
2022-09-24T19:52:45.520Z,39.00
2022-09-24T19:55:13.219Z,39.42
2022-09-24T19:57:40.882Z,39.14
2022-09-24T20:00:08.587Z,39.52
2022-09-24T20:02:37.250Z,39.28
2022-09-24T20:05:05.325Z,39.46
2022-09-24T20:07:33.575Z,39.75
2022-09-24T20:10:01.299Z,39.66
2022-09-24T20:12:29.577Z,39.48
2022-09-24T20:14:57.294Z,39.80
2022-09-24T20:17:25.026Z,40.03
2022-09-24T20:19:52.728Z,40.04
2022-09-24T20:22:20.425Z,39.57
2022-09-24T20:24:48.128Z,39.65
2022-09-24T20:27:33.392Z,39.93
2022-09-24T20:30:01.105Z,39.93
2022-09-24T20:32:29.967Z,39.91
2022-09-24T20:34:59.116Z,40.09
2022-09-24T20:37:27.399Z,40.26
2022-09-24T20:42:22.830Z,40.18
2022-09-24T20:44:50.572Z,40.34
2022-09-24T20:47:18.230Z,40.61
2022-09-24T20:49:45.931Z,40.70
2022-09-24T20:52:13.618Z,40.31
2022-09-24T20:54:41.408Z,40.37
2022-09-24T20:57:09.102Z,40.47
2022-09-24T20:59:36.848Z,40.96
2022-09-24T21:02:04.697Z,40.76
2022-09-24T21:04:32.538Z,40.85
2022-09-24T21:07:01.684Z,40.70
2022-09-24T21:09:29.358Z,40.80
2022-09-24T21:11:57.175Z,40.88
2022-09-24T21:14:26.212Z,40.98
2022-09-24T21:16:55.232Z,40.62
2022-09-24T21:19:24.392Z,40.80
2022-09-24T21:21:52.286Z,40.77
2022-09-24T21:24:19.973Z,40.67
2022-09-24T21:26:47.706Z,40.89
2022-09-24T21:29:16.597Z,40.68
2022-09-24T21:31:46.135Z,40.77
2022-09-24T21:34:14.009Z,40.87
2022-09-24T21:36:44.654Z,40.82
2022-09-24T21:39:12.918Z,41.18
2022-09-24T21:41:40.652Z,41.28
2022-09-24T21:44:09.113Z,41.25
2022-09-24T21:46:37.089Z,40.96
2022-09-24T21:49:04.795Z,41.06
2022-09-24T21:51:32.579Z,41.09
2022-09-24T21:54:00.383Z,40.93
2022-09-24T21:56:28.854Z,41.08
2022-09-24T21:58:56.541Z,41.17
2022-09-24T22:01:25.835Z,41.39
2022-09-24T22:03:54.219Z,41.49
2022-09-24T22:06:21.893Z,41.25
2022-09-24T22:08:49.561Z,41.39
2022-09-24T22:11:18.021Z,41.39
2022-09-24T22:13:46.313Z,41.20
2022-09-24T22:16:14.048Z,41.09
2022-09-24T22:18:41.917Z,41.52
2022-09-24T22:21:09.614Z,41.29
2022-09-24T22:23:37.345Z,41.36
2022-09-24T22:26:05.042Z,41.05
2022-09-24T22:28:32.789Z,41.36
2022-09-24T22:31:00.550Z,41.45
2022-09-24T22:33:46.036Z,41.18
2022-09-24T22:36:13.701Z,41.27
2022-09-24T22:38:41.416Z,41.55
2022-09-24T22:41:10.901Z,41.70
2022-09-24T22:43:38.587Z,41.26
2022-09-24T22:46:06.366Z,41.15
2022-09-24T22:48:34.096Z,41.27
2022-09-24T22:51:01.821Z,41.25
2022-09-24T22:53:29.521Z,41.71
2022-09-24T22:55:57.265Z,41.57
2022-09-24T22:58:24.937Z,41.51
2022-09-24T23:00:52.786Z,41.42
2022-09-24T23:03:20.490Z,41.46
2022-09-24T23:05:49.471Z,41.34
2022-09-24T23:08:17.343Z,41.45
2022-09-24T23:10:45.038Z,41.54
2022-09-24T23:13:12.752Z,41.47
2022-09-24T23:15:40.457Z,41.77
2022-09-24T23:18:08.146Z,41.63
2022-09-24T23:20:35.820Z,41.89
2022-09-24T23:23:03.573Z,41.70
2022-09-24T23:25:31.268Z,42.08
2022-09-24T23:27:58.909Z,41.63
2022-09-24T23:30:26.674Z,41.98
2022-09-24T23:32:54.445Z,41.50
2022-09-24T23:35:22.145Z,41.89
2022-09-24T23:37:49.833Z,41.66
2022-09-24T23:40:17.978Z,41.61
2022-09-24T23:42:45.754Z,41.89
2022-09-24T23:45:13.448Z,42.11
2022-09-24T23:47:41.099Z,42.02
2022-09-24T23:50:09.024Z,41.81
2022-09-24T23:52:36.723Z,41.80
2022-09-24T23:55:04.444Z,41.51
2022-09-24T23:57:32.158Z,41.78
2022-09-24T23:59:59.873Z,42.02
